Time;durP1;ratioP1;P1;durP2;ratioP2;P2;SDS_P1;SDS_P2;PMS_P1;PMS_P2;Temp;Humidity;BMP_temperature;BMP_pressure;BME280_temperature;BME280_humidity;BME280_pressure;Samples;Min_cycle;Max_cycle;Signal;HPM_P1;HPM_P2
2023/03/19 00:02:15;;;;;;;3.50;2.67;;;;;;;8.95;100.00;100812.63;5113700;28;20058;-81
2023/03/19 00:08:03;;;;;;;3.65;2.85;;;;;;;8.92;100.00;100813.03;5111598;28;20089;-82
2023/03/19 00:13:50;;;;;;;3.38;2.83;;;;;;;8.89;100.00;100800.13;5113670;28;20043;-80
2023/03/19 00:19:38;;;;;;;3.67;2.45;;;;;;;8.91;100.00;100806.88;5113444;28;20061;-79
2023/03/19 00:25:25;;;;;;;3.88;2.88;;;;;;;8.96;100.00;100825.78;5113495;28;20514;-79
2023/03/19 00:31:15;;;;;;;5.13;2.92;;;;;;;9.02;100.00;100831.31;5113468;28;20046;-80
2023/03/19 00:37:02;;;;;;;5.45;3.03;;;;;;;8.98;100.00;100829.06;5111570;28;20507;-80
2023/03/19 00:42:49;;;;;;;5.55;3.47;;;;;;;8.93;100.00;100812.84;5112033;28;20803;-80
2023/03/19 00:48:36;;;;;;;4.68;3.13;;;;;;;8.98;100.00;100821.06;5110780;28;20093;-80
2023/03/19 00:54:23;;;;;;;4.38;3.58;;;;;;;8.97;100.00;100827.44;5112909;28;20061;-80
2023/03/19 01:00:10;;;;;;;4.35;3.65;;;;;;;8.97;100.00;100821.28;5112982;28;20412;-81
2023/03/19 01:05:58;;;;;;;5.25;3.35;;;;;;;8.94;100.00;100824.31;5112823;28;20084;-81
2023/03/19 01:11:45;;;;;;;5.65;3.40;;;;;;;8.84;100.00;100819.41;5112866;28;20089;-81
2023/03/19 01:17:31;;;;;;;4.95;4.07;;;;;;;8.92;100.00;100826.38;5111178;28;20187;-81
2023/03/19 01:23:18;;;;;;;6.55;3.75;;;;;;;9.02;100.00;100836.66;5112565;28;20045;-81
2023/03/19 01:29:06;;;;;;;7.38;4.28;;;;;;;9.12;100.00;100826.41;5110367;28;20043;-81
2023/03/19 01:34:53;;;;;;;5.68;4.32;;;;;;;9.10;100.00;100817.78;5112471;28;20054;-80
2023/03/19 01:44:31;;;;;;;5.28;4.10;;;;;;;9.14;100.00;100830.50;5111981;28;20098;-80
2023/03/19 01:50:38;;;;;;;6.38;4.80;;;;;;;9.22;100.00;100824.13;5112242;28;20038;-80
2023/03/19 01:53:03;;;;;;;7.40;4.30;;;;;;;9.22;100.00;100824.94;5114910;28;20088;-80
2023/03/19 02:02:31;;;;;;;5.95;4.80;;;;;;;9.25;100.00;100821.91;5115793;28;20054;-80
2023/03/19 02:08:21;;;;;;;6.60;4.40;;;;;;;9.26;100.00;100815.53;5115619;28;20160;-79
2023/03/19 02:14:08;;;;;;;5.65;4.57;;;;;;;9.27;100.00;100813.69;5115508;28;20437;-79
2023/03/19 02:16:34;;;;;;;7.10;5.20;;;;;;;9.18;100.00;100818.38;5096287;28;20035;-80
2023/03/19 02:22:25;;;;;;;6.93;4.85;;;;;;;9.09;100.00;100822.28;5115434;28;20086;-79
2023/03/19 02:28:16;;;;;;;8.40;6.00;;;;;;;9.01;100.00;100833.16;5118563;28;20050;-80
2023/03/19 02:34:03;;;;;;;7.05;5.53;;;;;;;9.01;100.00;100825.16;5114158;28;20104;-79
2023/03/19 02:39:56;;;;;;;8.95;5.50;;;;;;;9.03;100.00;100836.47;5115129;28;20081;-80
2023/03/19 02:42:26;;;;;;;10.07;5.65;;;;;;;9.07;100.00;100839.53;5117848;27;20044;-79
2023/03/19 02:44:51;;;;;;;9.20;6.00;;;;;;;9.07;100.00;100827.00;5114707;28;20507;-80
2023/03/19 02:47:16;;;;;;;8.18;6.00;;;;;;;9.15;100.00;100842.81;5115946;27;20063;-80
2023/03/19 02:56:25;;;;;;;10.30;6.13;;;;;;;9.18;100.00;100830.91;5114399;28;20494;-80
2023/03/19 03:02:12;;;;;;;9.35;5.65;;;;;;;9.12;100.00;100827.22;5114698;28;20638;-81
2023/03/19 03:07:59;;;;;;;9.73;6.05;;;;;;;9.20;100.00;100850.19;5112604;28;20058;-82
2023/03/19 03:10:25;;;;;;;10.68;6.63;;;;;;;9.17;100.00;100846.09;5114240;28;20023;-81
2023/03/19 03:16:11;;;;;;;11.18;6.60;;;;;;;9.18;100.00;100844.25;5114563;28;20043;-82
2023/03/19 03:25:41;;;;;;;13.05;7.35;;;;;;;9.14;100.00;100846.50;5114364;28;20042;-83
2023/03/19 03:31:28;;;;;;;12.93;7.72;;;;;;;9.04;100.00;100832.75;5114389;28;20062;-80
2023/03/19 03:37:16;;;;;;;11.35;8.07;;;;;;;9.07;100.00;100847.53;5112212;28;20391;-80
2023/03/19 03:39:42;;;;;;;10.98;8.18;;;;;;;9.02;100.00;100844.66;5095063;28;20122;-81
2023/03/19 03:42:07;;;;;;;11.32;8.13;;;;;;;8.89;100.00;100837.44;5113790;28;20028;-80
2023/03/19 03:44:33;;;;;;;11.52;8.13;;;;;;;8.88;100.00;100839.28;5116899;28;20042;-80
2023/03/19 03:50:20;;;;;;;14.57;8.48;;;;;;;8.75;100.00;100846.47;5114238;28;20081;-79
2023/03/19 03:56:07;;;;;;;11.45;7.85;;;;;;;8.56;100.00;100846.19;5114127;28;20398;-78
2023/03/19 03:58:33;;;;;;;12.10;7.33;;;;;;;8.55;100.00;100857.06;5116860;28;20035;-78
2023/03/19 04:04:20;;;;;;;11.50;8.40;;;;;;;8.39;100.00;100842.25;5111823;28;20124;-81
2023/03/19 04:10:09;;;;;;;12.95;8.60;;;;;;;8.35;100.00;100855.13;5113677;28;20057;-80
2023/03/19 04:15:56;;;;;;;14.90;9.15;;;;;;;8.35;100.00;100859.63;5111577;28;20535;-79
2023/03/19 04:21:43;;;;;;;11.68;8.02;;;;;;;8.16;100.00;100853.19;5113528;28;20050;-80
2023/03/19 04:27:30;;;;;;;14.60;9.30;;;;;;;8.13;100.00;100871.41;5113437;28;20082;-80
2023/03/19 04:33:18;;;;;;;14.00;9.68;;;;;;;8.00;100.00;100867.66;5113292;28;20396;-80
2023/03/19 04:35:43;;;;;;;16.13;9.77;;;;;;;7.91;100.00;100854.69;5115942;28;20046;-79
2023/03/19 04:41:30;;;;;;;14.07;9.60;;;;;;;7.83;100.00;100860.19;5113119;28;20212;-80
2023/03/19 04:43:55;;;;;;;15.75;9.68;;;;;;;7.78;100.00;100856.25;5106741;28;20139;-81
2023/03/19 04:49:42;;;;;;;15.13;10.90;;;;;;;7.75;100.00;100861.13;5113095;28;20140;-80
2023/03/19 04:55:28;;;;;;;15.18;9.85;;;;;;;7.69;100.00;100861.94;5113168;28;20284;-80
2023/03/19 05:01:15;;;;;;;16.83;10.10;;;;;;;7.64;100.00;100865.16;5112890;28;20314;-81
2023/03/19 05:07:03;;;;;;;20.42;11.75;;;;;;;7.65;100.00;100882.78;5112073;28;20047;-81
2023/03/19 05:12:50;;;;;;;16.48;10.55;;;;;;;7.56;100.00;100889.28;5112675;28;20043;-81
2023/03/19 05:15:15;;;;;;;22.10;11.85;;;;;;;7.55;100.00;100881.50;5112348;28;20028;-80
2023/03/19 05:17:41;;;;;;;19.05;11.20;;;;;;;7.53;100.00;100894.97;5112208;28;20395;-80
2023/03/19 05:20:08;;;;;;;17.70;11.40;;;;;;;7.43;100.00;100889.97;5115487;27;20440;-81
2023/03/19 05:25:58;;;;;;;16.52;10.32;;;;;;;7.32;100.00;100893.16;5115288;28;20100;-81
2023/03/19 05:28:24;;;;;;;15.63;10.23;;;;;;;7.31;100.00;100896.03;5093621;28;20480;-81
2023/03/19 05:44:15;;;;;;;17.30;10.68;;;;;;;7.30;100.00;100911.16;5112252;28;20507;-82
2023/03/19 05:50:02;;;;;;;18.85;11.00;;;;;;;7.22;100.00;100905.94;5110112;28;20076;-81
2023/03/19 05:52:28;;;;;;;18.27;11.73;;;;;;;7.21;100.00;100919.44;5114918;28;20043;-80
2023/03/19 05:54:53;;;;;;;19.23;10.93;;;;;;;7.24;100.00;100921.75;5111826;28;20024;-81
2023/03/19 05:57:18;;;;;;;19.00;10.73;;;;;;;7.21;100.00;100922.09;5114022;28;20452;-81
2023/03/19 05:59:43;;;;;;;23.13;11.73;;;;;;;7.24;100.00;100929.72;5094211;28;20019;-81
2023/03/19 06:05:30;;;;;;;24.15;11.75;;;;;;;7.17;100.00;100923.50;5111813;28;20069;-80
2023/03/19 06:11:17;;;;;;;25.17;14.55;;;;;;;7.24;100.00;100922.56;5111988;28;20127;-81
2023/03/19 06:13:43;;;;;;;27.40;15.05;;;;;;;7.29;100.00;100935.28;5093298;28;20531;-81
2023/03/19 06:16:08;;;;;;;28.48;13.93;;;;;;;7.31;100.00;100942.06;5113025;28;20468;-81
2023/03/19 06:21:55;;;;;;;19.75;11.50;;;;;;;7.33;100.00;100945.34;5110026;28;20502;-81
2023/03/19 06:27:42;;;;;;;21.10;11.68;;;;;;;7.32;100.00;100945.53;5111447;28;20295;-81
2023/03/19 06:30:09;;;;;;;22.38;11.82;;;;;;;7.36;100.00;100955.59;5114499;28;20055;-82
2023/03/19 06:32:35;;;;;;;24.33;12.45;;;;;;;7.37;100.00;100961.75;5111215;28;20115;-82
2023/03/19 06:38:21;;;;;;;28.90;14.60;;;;;;;7.46;100.00;100968.56;5111344;28;20045;-81
2023/03/19 06:44:08;;;;;;;23.55;13.20;;;;;;;7.54;100.00;100959.66;5112939;28;20063;-81
2023/03/19 06:46:33;;;;;;;24.88;15.90;;;;;;;7.54;100.00;100965.81;5096444;28;20106;-82
2023/03/19 06:48:59;;;;;;;35.40;17.95;;;;;;;7.51;100.00;100968.00;5117883;28;20373;-81
2023/03/19 06:51:26;;;;;;;26.58;15.55;;;;;;;7.62;100.00;100980.81;5114552;28;20035;-79
2023/03/19 06:57:13;;;;;;;27.20;14.40;;;;;;;7.84;100.00;100977.13;5114645;28;20035;-79
2023/03/19 07:03:00;;;;;;;29.55;17.17;;;;;;;9.34;100.00;100979.94;5114965;28;20054;-80
2023/03/19 07:08:47;;;;;;;18.30;11.85;;;;;;;12.07;100.00;100999.22;5112575;28;20156;-80
2023/03/19 07:14:34;;;;;;;12.18;8.88;;;;;;;13.47;100.00;100999.25;5114633;28;20074;-81
2023/03/19 07:20:21;;;;;;;12.43;7.60;;;;;;;15.05;100.00;101019.88;5112530;28;20160;-80
2023/03/19 07:26:08;;;;;;;12.27;7.53;;;;;;;15.00;100.00;101013.53;5114478;28;20514;-80
2023/03/19 07:31:55;;;;;;;10.18;6.82;;;;;;;15.98;100.00;101025.88;5117252;28;20276;-80
2023/03/19 07:37:42;;;;;;;11.68;7.35;;;;;;;16.41;100.00;101031.38;5113981;28;20510;-80
2023/03/19 07:43:30;;;;;;;9.95;7.03;;;;;;;16.53;100.00;101023.22;5113868;28;20318;-83
2023/03/19 07:49:17;;;;;;;8.45;6.80;;;;;;;17.04;98.90;101029.28;5111945;28;20078;-81
2023/03/19 07:55:04;;;;;;;10.98;7.70;;;;;;;15.39;100.00;101028.88;5113723;28;20273;-81
2023/03/19 08:00:52;;;;;;;10.02;7.18;;;;;;;14.49;100.00;101040.22;5112030;28;20503;-83
2023/03/19 08:06:39;;;;;;;13.20;7.15;;;;;;;13.40;100.00;101044.19;5113739;28;20540;-84
2023/03/19 08:12:26;;;;;;;15.27;7.47;;;;;;;12.97;100.00;101053.16;5113947;28;20130;-82
2023/03/19 08:18:13;;;;;;;10.65;6.70;;;;;;;12.89;100.00;101052.66;5113399;28;20063;-84
2023/03/19 08:24:00;;;;;;;11.00;5.82;;;;;;;13.64;100.00;101050.47;5113165;28;20312;-84
2023/03/19 08:29:47;;;;;;;13.07;6.07;;;;;;;15.80;100.00;101056.59;5111142;28;20310;-83
2023/03/19 08:35:33;;;;;;;11.82;5.38;;;;;;;18.40;87.43;101063.31;5113076;28;20292;-81
2023/03/19 08:41:21;;;;;;;12.98;5.53;;;;;;;19.95;75.61;101074.28;5110934;28;20272;-80
2023/03/19 08:47:10;;;;;;;9.13;4.88;;;;;;;19.78;77.22;101082.66;5113334;28;20518;-81
2023/03/19 08:52:56;;;;;;;12.55;5.82;;;;;;;19.56;74.71;101092.09;5113358;28;20102;-82
2023/03/19 08:58:44;;;;;;;11.77;6.25;;;;;;;16.98;84.02;101078.91;5113091;28;20050;-80
2023/03/19 09:04:46;;;;;;;10.68;7.72;;;;;;;15.72;96.58;101081.25;5112313;28;20057;-82
2023/03/19 09:10:33;;;;;;;16.85;7.82;;;;;;;14.97;99.69;101100.19;5113402;28;20051;-81
2023/03/19 09:16:20;;;;;;;11.23;7.82;;;;;;;15.48;98.18;101104.75;5113276;28;20536;-79
2023/03/19 09:22:07;;;;;;;13.43;7.35;;;;;;;15.41;95.73;101107.59;5112464;28;20277;-80
2023/03/19 09:27:55;;;;;;;16.48;7.00;;;;;;;14.86;99.41;101109.94;5112618;28;20046;-80
2023/03/19 09:33:41;;;;;;;15.13;6.35;;;;;;;15.48;97.29;101119.06;5112730;28;20066;-81
2023/03/19 09:39:28;;;;;;;14.32;5.78;;;;;;;18.00;81.50;101126.88;5110845;28;20669;-80
2023/03/19 09:45:18;;;;;;;15.05;7.28;;;;;;;16.48;87.12;101130.28;5112360;28;20368;-80
2023/03/19 09:51:11;;;;;;;19.08;7.60;;;;;;;15.78;92.95;101136.91;5110222;28;20051;-79
2023/03/19 09:56:59;;;;;;;16.95;8.32;;;;;;;17.12;88.83;101138.81;5111826;28;20031;-79
2023/03/19 10:02:50;;;;;;;13.23;7.82;;;;;;;17.89;86.15;101138.66;5112281;28;20046;-79
2023/03/19 10:08:55;;;;;;;13.45;7.75;;;;;;;18.45;78.73;101152.72;5111395;28;20074;-79
2023/03/19 10:15:00;;;;;;;15.40;9.02;;;;;;;19.59;76.90;101149.34;5111904;28;20039;-80
2023/03/19 10:20:53;;;;;;;16.05;8.25;;;;;;;21.81;67.33;101157.59;5113581;28;20050;-80
2023/03/19 10:26:42;;;;;;;10.73;6.03;;;;;;;21.39;64.32;101151.78;5114384;28;20057;-75
2023/03/19 10:32:40;;;;;;;13.45;6.82;;;;;;;18.08;78.97;101160.78;5115342;28;20051;-75
2023/03/19 10:38:26;;;;;;;9.70;4.97;;;;;;;18.70;79.98;101155.66;5113370;28;20092;-76
2023/03/19 10:44:31;;;;;;;13.05;5.80;;;;;;;17.75;82.97;101153.69;5115558;28;20096;-75
2023/03/19 10:53:40;;;;;;;14.90;5.32;;;;;;;18.80;81.56;101165.75;5114861;28;20089;-76
2023/03/19 10:56:19;;;;;;;12.73;6.15;;;;;;;18.64;79.70;101170.25;5095592;28;20036;-76
2023/03/19 11:02:19;;;;;;;14.43;5.20;;;;;;;16.83;87.91;101168.69;5114862;28;20043;-78
2023/03/19 11:08:19;;;;;;;11.57;6.30;;;;;;;16.50;90.18;101168.66;5115283;28;20038;-75
2023/03/19 11:14:19;;;;;;;14.68;7.38;;;;;;;16.63;92.93;101168.31;5112933;28;20043;-77
2023/03/19 11:20:10;;;;;;;16.27;7.78;;;;;;;17.93;85.85;101172.28;5115674;28;20108;-77
2023/03/19 11:26:00;;;;;;;13.20;8.40;;;;;;;17.90;82.37;101168.16;5114683;28;20465;-76
2023/03/19 11:32:11;;;;;;;13.10;7.55;;;;;;;17.46;84.70;101180.06;5114549;28;20084;-77
2023/03/19 11:38:01;;;;;;;13.63;7.25;;;;;;;16.18;89.47;101171.06;5114302;28;20088;-76
2023/03/19 11:44:02;;;;;;;12.40;8.40;;;;;;;15.18;95.20;101177.69;5115416;28;20149;-77
2023/03/19 11:50:03;;;;;;;13.35;6.97;;;;;;;14.96;95.22;101174.78;5112272;28;20035;-77
2023/03/19 11:52:52;;;;;;;11.60;6.50;;;;;;;14.94;97.05;101173.38;5114190;28;20020;-74
2023/03/19 12:05:23;;;;;;;18.25;10.70;;;;;;;18.61;84.70;101191.59;5031387;28;20567;-73
2023/03/19 12:11:23;;;;;;;14.32;9.98;;;;;;;18.78;84.29;101176.81;5114127;28;20092;-73
2023/03/19 12:17:37;;;;;;;13.73;9.55;;;;;;;17.64;85.65;101180.59;5111304;28;20130;-72
2023/03/19 12:23:33;;;;;;;14.88;10.82;;;;;;;18.20;85.46;101178.47;5113421;28;20152;-72
2023/03/19 12:29:45;;;;;;;16.27;12.23;;;;;;;17.87;85.02;101178.69;5113734;28;20514;-73
2023/03/19 12:32:36;;;;;;;16.38;11.82;;;;;;;18.15;85.39;101181.16;5116201;27;20036;-72
2023/03/19 12:38:47;;;;;;;15.13;9.70;;;;;;;18.14;83.49;101182.22;5115150;27;20043;-73
2023/03/19 12:41:35;;;;;;;16.00;11.75;;;;;;;18.80;82.70;101190.16;5094641;28;20115;-72
2023/03/19 12:50:49;;;;;;;23.05;16.23;;;;;;;17.18;88.64;101184.59;5112877;28;20061;-72
2023/03/19 12:56:53;;;;;;;22.67;15.63;;;;;;;16.54;91.00;101176.03;5112647;28;20053;-73
2023/03/19 13:06:30;;;;;;;23.17;17.38;;;;;;;16.25;93.81;101191.47;5113016;28;20041;-72
2023/03/19 13:12:24;;;;;;;28.55;18.80;;;;;;;15.98;93.37;101195.81;5112813;28;20080;-73
2023/03/19 13:18:35;;;;;;;26.20;18.60;;;;;;;16.17;94.73;101199.09;5110498;28;20075;-74
2023/03/19 13:24:35;;;;;;;25.02;17.33;;;;;;;17.13;91.10;101202.63;5112490;28;20038;-73
2023/03/19 13:30:23;;;;;;;24.13;17.42;;;;;;;20.42;76.38;101198.16;5112454;28;20124;-74
2023/03/19 13:36:13;;;;;;;22.92;16.23;;;;;;;21.14;70.82;101210.63;5110405;28;20426;-78
2023/03/19 13:42:19;;;;;;;18.42;15.45;;;;;;;19.39;76.32;101223.31;5112564;28;20100;-75
2023/03/19 13:44:59;;;;;;;22.02;15.77;;;;;;;18.66;79.49;101214.13;5093110;28;20091;-77
2023/03/19 13:51:01;;;;;;;24.65;16.55;;;;;;;18.73;80.17;101219.31;5114565;28;20127;-74
2023/03/19 13:57:05;;;;;;;19.67;16.45;;;;;;;17.99;81.53;101217.25;5116080;28;20046;-79
2023/03/19 14:02:52;;;;;;;23.30;17.70;;;;;;;17.49;85.26;101223.66;5114151;28;20088;-78
2023/03/19 14:08:46;;;;;;;24.90;17.05;;;;;;;17.25;83.38;101222.22;5115764;28;20440;-76
2023/03/19 14:14:40;;;;;;;21.92;16.90;;;;;;;16.70;88.31;101220.31;5116987;27;20050;-79
2023/03/19 14:20:43;;;;;;;24.63;16.98;;;;;;;16.37;90.02;101205.69;5115253;28;20080;-78
2023/03/19 14:26:30;;;;;;;24.55;15.20;;;;;;;16.18;90.86;101204.25;5118882;28;20125;-76
2023/03/19 14:29:04;;;;;;;25.27;16.85;;;;;;;16.14;89.81;101213.91;5115171;28;20053;-76
2023/03/19 14:34:54;;;;;;;22.20;15.05;;;;;;;16.29;89.66;101208.78;5113429;28;20097;-75
2023/03/19 14:40:49;;;;;;;23.50;16.02;;;;;;;16.05;86.97;101215.38;5115821;28;20070;-79
2023/03/19 14:47:30;;;;;;;48.35;25.05;;;;;;;16.38;90.37;101222.72;5115248;28;20034;-75
2023/03/19 14:50:33;;;;;;;32.47;21.52;;;;;;;16.43;90.23;101230.88;5017888;28;20084;-78
2023/03/19 14:56:25;;;;;;;27.92;17.15;;;;;;;16.50;87.60;101230.75;5114699;28;20055;-74
2023/03/19 15:02:44;;;;;;;31.77;21.42;;;;;;;16.11;90.41;101227.88;5117615;27;20138;-76
2023/03/19 15:08:37;;;;;;;30.15;24.88;;;;;;;15.81;92.93;101230.81;5112766;28;20088;-76
2023/03/19 15:14:25;;;;;;;25.40;19.52;;;;;;;15.68;92.50;101231.09;5114576;28;20043;-75
2023/03/19 15:20:20;;;;;;;21.00;13.88;;;;;;;15.97;91.22;101232.75;5115613;28;20365;-75
2023/03/19 15:26:10;;;;;;;19.55;12.65;;;;;;;15.79;90.78;101233.75;5113008;28;20120;-75
2023/03/19 15:31:57;;;;;;;20.08;13.18;;;;;;;16.07;89.64;101230.25;5114318;28;20085;-74
2023/03/19 15:37:49;;;;;;;19.65;11.77;;;;;;;15.94;88.63;101232.41;5111959;28;20301;-75
2023/03/19 15:40:18;;;;;;;17.77;11.45;;;;;;;15.73;87.74;101240.09;5116990;28;20043;-76
2023/03/19 15:46:09;;;;;;;18.02;12.27;;;;;;;15.14;90.30;101246.56;5114068;28;20388;-75
2023/03/19 15:52:05;;;;;;;20.45;13.98;;;;;;;14.71;94.07;101244.16;5117220;28;20123;-76
2023/03/19 15:57:56;;;;;;;45.38;25.83;;;;;;;14.48;96.37;101264.63;5111663;28;20040;-81
2023/03/19 16:03:48;;;;;;;19.85;13.00;;;;;;;14.36;95.23;101274.47;5117033;28;20502;-78
2023/03/19 16:09:34;;;;;;;18.92;11.60;;;;;;;13.81;100.00;101285.31;5115929;27;20132;-80
2023/03/19 16:15:43;;;;;;;18.60;12.77;;;;;;;13.59;100.00;101306.44;5113779;28;20084;-80
2023/03/19 16:24:52;;;;;;;17.27;10.02;;;;;;;13.42;100.00;101308.03;5113613;28;20080;-79
2023/03/19 16:30:45;;;;;;;16.15;11.13;;;;;;;13.37;100.00;101321.31;5113495;28;20118;-79
2023/03/19 16:36:32;;;;;;;19.23;10.95;;;;;;;12.60;100.00;101320.63;5113371;28;20045;-76
2023/03/19 16:42:36;;;;;;;20.02;12.05;;;;;;;12.16;100.00;101332.19;5113228;28;20112;-75
2023/03/19 16:48:23;;;;;;;18.13;10.07;;;;;;;11.75;100.00;101352.06;5113195;28;20035;-74
2023/03/19 16:54:11;;;;;;;18.73;11.57;;;;;;;11.45;100.00;101340.16;5110929;28;20765;-73
2023/03/19 16:59:58;;;;;;;16.00;10.60;;;;;;;11.22;100.00;101334.38;5113149;28;20556;-74
2023/03/19 17:05:46;;;;;;;18.67;15.05;;;;;;;11.15;100.00;101358.47;5113102;28;20428;-78
2023/03/19 17:08:12;;;;;;;20.02;12.02;;;;;;;11.16;100.00;101365.47;5094372;28;20023;-78
2023/03/19 17:10:44;;;;;;;15.93;11.10;;;;;;;11.06;100.00;101360.53;5093772;28;20040;-73
2023/03/19 17:13:21;;;;;;;17.77;11.45;;;;;;;11.01;100.00;101375.56;5112636;28;20031;-77
2023/03/19 17:15:48;;;;;;;16.58;10.77;;;;;;;10.99;100.00;101385.66;5094276;28;20035;-74
2023/03/19 17:21:35;;;;;;;21.45;12.45;;;;;;;10.85;100.00;101390.13;5112758;28;20092;-76
2023/03/19 17:27:22;;;;;;;17.65;9.40;;;;;;;10.65;100.00;101397.25;5112639;28;20056;-75
2023/03/19 17:33:27;;;;;;;16.23;9.15;;;;;;;10.48;100.00;101404.81;5112444;28;20644;-74
2023/03/19 17:35:54;;;;;;;17.77;9.93;;;;;;;10.44;100.00;101415.09;5093262;28;20067;-74
2023/03/19 17:41:41;;;;;;;15.40;9.05;;;;;;;10.22;100.00;101432.25;5110177;28;20078;-77
2023/03/19 17:47:28;;;;;;;16.80;10.13;;;;;;;10.33;100.00;101434.34;5112214;28;20046;-74
2023/03/19 17:53:17;;;;;;;14.18;8.18;;;;;;;10.31;100.00;101440.94;5113516;28;20304;-73
2023/03/19 17:59:04;;;;;;;14.18;7.97;;;;;;;10.29;100.00;101465.19;5111432;28;20051;-75
2023/03/19 18:04:51;;;;;;;96.78;47.85;;;;;;;10.23;100.00;101464.13;5112059;28;20089;-74
2023/03/19 18:10:38;;;;;;;18.00;9.88;;;;;;;10.17;100.00;101490.78;5111766;28;20066;-75
2023/03/19 18:13:04;;;;;;;19.48;10.38;;;;;;;10.07;100.00;101484.94;5114712;28;20106;-75
2023/03/19 18:15:30;;;;;;;17.05;9.98;;;;;;;10.03;100.00;101491.69;5111531;28;20035;-76
2023/03/19 18:21:17;;;;;;;16.20;8.27;;;;;;;9.90;100.00;101498.59;5111899;28;20041;-75
2023/03/19 18:27:04;;;;;;;14.60;9.35;;;;;;;9.76;100.00;101504.84;5112022;28;20074;-74
2023/03/19 18:32:57;;;;;;;12.68;7.43;;;;;;;9.65;100.00;101526.72;5106441;28;20046;-75
2023/03/19 18:38:43;;;;;;;11.25;6.97;;;;;;;9.71;100.00;101543.81;5114827;28;20096;-73
2023/03/19 18:44:30;;;;;;;12.40;7.53;;;;;;;9.48;100.00;101558.16;5112848;28;20047;-72
2023/03/19 18:50:17;;;;;;;12.13;6.75;;;;;;;9.46;100.00;101559.38;5115043;28;20081;-73
2023/03/19 18:56:29;;;;;;;13.10;6.95;;;;;;;9.33;100.00;101568.06;5115005;28;20046;-73
2023/03/19 19:02:36;;;;;;;13.70;7.70;;;;;;;9.34;100.00;101577.72;5112516;28;20042;-74
2023/03/19 19:08:24;;;;;;;10.68;7.53;;;;;;;9.08;100.00;101583.56;5114905;28;20435;-76
2023/03/19 19:14:16;;;;;;;11.63;7.43;;;;;;;8.90;100.00;101588.44;5114671;28;20085;-74
2023/03/19 19:20:04;;;;;;;12.45;8.10;;;;;;;8.79;100.00;101589.75;5113950;28;20047;-72
2023/03/19 19:25:53;;;;;;;10.73;7.15;;;;;;;8.71;100.00;101589.84;5114566;28;20126;-73
2023/03/19 19:31:40;;;;;;;12.43;7.57;;;;;;;8.58;100.00;101585.13;5112338;28;20043;-76
2023/03/19 19:37:27;;;;;;;14.00;8.15;;;;;;;8.59;100.00;101602.78;5113969;28;20303;-71
2023/03/19 19:43:17;;;;;;;15.52;9.63;;;;;;;8.63;100.00;101603.25;5114862;27;20831;-70
2023/03/19 19:49:05;;;;;;;15.32;9.45;;;;;;;8.69;100.00;101623.88;5113752;28;20077;-75
2023/03/19 19:54:51;;;;;;;15.63;9.68;;;;;;;8.72;100.00;101626.16;5113954;28;20045;-74
2023/03/19 20:00:39;;;;;;;15.15;10.77;;;;;;;8.62;100.00;101626.41;5112680;28;20292;-73
2023/03/19 20:06:25;;;;;;;17.05;9.32;;;;;;;8.61;100.00;101624.75;5113995;28;20046;-73
2023/03/19 20:12:22;;;;;;;33.92;16.65;;;;;;;8.63;100.00;101636.06;5113761;28;20050;-72
2023/03/19 20:14:49;;;;;;;130.75;43.65;;;;;;;8.59;100.00;101617.94;5116443;28;20039;-75
2023/03/19 20:20:36;;;;;;;33.20;17.75;;;;;;;8.55;100.00;101614.00;5113279;28;20039;-72
2023/03/19 20:23:02;;;;;;;20.65;12.80;;;;;;;8.57;100.00;101630.63;5113230;28;20063;-74
2023/03/19 20:28:49;;;;;;;15.30;8.57;;;;;;;8.59;100.00;101636.59;5113532;28;20046;-74
2023/03/19 20:34:36;;;;;;;24.92;15.27;;;;;;;8.51;100.00;101634.84;5111192;28;20148;-73
2023/03/19 20:40:42;;;;;;;75.60;45.30;;;;;;;8.47;100.00;101641.56;5113233;28;20276;-75
2023/03/19 20:46:29;;;;;;;14.63;8.88;;;;;;;8.49;100.00;101658.19;5113553;28;20499;-74
2023/03/19 20:52:16;;;;;;;17.65;9.68;;;;;;;8.41;100.00;101668.09;5113223;28;20509;-75
2023/03/19 20:58:22;;;;;;;14.52;7.85;;;;;;;8.41;100.00;101663.59;5112800;28;20343;-75
2023/03/19 21:04:17;;;;;;;14.35;7.93;;;;;;;8.28;100.00;101663.34;5111204;28;20474;-75
2023/03/19 21:09:45;;;;;;;12.90;9.85;;;;;;;8.34;100.00;101673.28;5112628;28;20018;-74
2023/03/19 21:15:31;;;;;;;16.98;8.80;;;;;;;8.19;100.00;101681.22;5112679;28;20353;-75
2023/03/19 21:21:28;;;;;;;14.73;8.70;;;;;;;8.10;100.00;101674.31;5112495;28;20043;-76
2023/03/19 21:27:21;;;;;;;15.07;8.77;;;;;;;8.10;100.00;101679.63;5115646;27;20161;-75
2023/03/19 21:33:30;;;;;;;16.88;9.07;;;;;;;8.08;100.00;101674.44;5110424;28;20043;-75
2023/03/19 21:39:17;;;;;;;13.50;8.38;;;;;;;8.15;100.00;101671.94;5112220;28;20085;-74
2023/03/19 21:48:36;;;;;;;11.27;7.70;;;;;;;8.14;100.00;101672.94;5112161;28;20043;-74
2023/03/19 21:54:23;;;;;;;15.82;9.00;;;;;;;8.08;100.00;101666.47;5112107;28;20092;-74
2023/03/19 22:00:16;;;;;;;15.23;7.85;;;;;;;8.10;100.00;101674.31;5109932;28;20079;-76
2023/03/19 22:06:02;;;;;;;11.13;7.53;;;;;;;8.09;100.00;101680.59;5112123;28;20127;-75
2023/03/19 22:11:49;;;;;;;13.13;8.88;;;;;;;8.01;100.00;101667.34;5114644;28;20062;-76
2023/03/19 22:17:36;;;;;;;15.43;7.63;;;;;;;8.10;100.00;101692.94;5115199;28;20058;-75
2023/03/19 22:23:24;;;;;;;11.32;6.90;;;;;;;8.08;100.00;101693.09;5115559;28;20179;-74
2023/03/19 22:29:19;;;;;;;10.68;6.47;;;;;;;8.01;100.00;101691.31;5114417;28;20042;-74
2023/03/19 22:35:14;;;;;;;10.52;5.95;;;;;;;7.98;100.00;101686.34;5115263;28;20080;-74
2023/03/19 22:41:01;;;;;;;13.43;6.60;;;;;;;7.93;100.00;101675.41;5113178;28;20084;-74
2023/03/19 22:46:48;;;;;;;10.15;6.10;;;;;;;7.96;100.00;101683.03;5115039;28;20053;-74
2023/03/19 22:52:35;;;;;;;14.90;6.88;;;;;;;7.96;100.00;101688.38;5117906;28;20042;-74
2023/03/19 22:58:23;;;;;;;14.38;6.22;;;;;;;7.93;100.00;101696.69;5114290;28;20506;-74
2023/03/19 23:04:18;;;;;;;11.30;6.35;;;;;;;7.96;100.00;101699.00;5114525;28;20080;-75
2023/03/19 23:10:15;;;;;;;14.25;6.47;;;;;;;7.86;100.00;101709.06;5112584;28;20066;-73
2023/03/19 23:16:13;;;;;;;14.38;7.03;;;;;;;7.78;100.00;101707.25;5114372;28;20043;-74
2023/03/19 23:22:02;;;;;;;13.32;6.63;;;;;;;7.75;100.00;101718.25;5114363;28;20426;-74
2023/03/19 23:27:49;;;;;;;15.38;7.10;;;;;;;7.68;100.00;101718.13;5112509;28;20131;-75
2023/03/19 23:33:36;;;;;;;16.35;7.95;;;;;;;7.64;100.00;101724.81;5114351;28;20035;-74
2023/03/19 23:36:02;;;;;;;16.17;8.18;;;;;;;7.60;100.00;101723.50;5095057;28;20039;-73
2023/03/19 23:41:53;;;;;;;19.65;7.55;;;;;;;7.72;100.00;101742.56;5115107;27;20069;-75
2023/03/19 23:47:40;;;;;;;19.17;7.93;;;;;;;7.58;100.00;101737.97;5114012;28;20039;-75
2023/03/19 23:53:28;;;;;;;20.83;8.63;;;;;;;7.59;100.00;101734.31;5114533;28;20157;-74
2023/03/19 23:59:15;;;;;;;21.30;8.30;;;;;;;7.58;100.00;101732.66;5113979;28;20041;-74
